Details From CZUM - CHURCHILL FALLS
To CYKL - SCHEFFERVILLE
Flight Number -
Tags generated
Created
Modified
Stats Distance 128 nm / 236 km
Max Altitude 5,200 ft / 1,585 m
Waypoints 4
Social Downloads 1
Likes 0
Share VATSIM

Download

Looking for another format? Having issues loading an existing format? Contact us
Advertisement - Login to hide

Notes

Basic altitude profile: - Ascent Rate: 2500ft/min - Ascent Speed: 250kts - Cruise Altitude: 21000ft - Cruise Speed: 420kts - Descent Rate: 1500ft/min - Descent Speed: 250kts Options: - Use NATs: yes - Use PACOTS: yes - Use low airways: yes - Use high airways: yes

Route

CZUM UM RR23 KL CYKL

ID Type Via Altitude Latitude Longitude Leg Dist Tot Dist Heading (true) Name
O CZUM APT - 0 ft / 0 m 53.56262˚ -64.10594˚ - 0 nm - CHURCHILL FALLS
UM NDB - 1,700 ft / 518 m 53.59056˚ -64.23556˚ 4 nm 4 nm 290° / 290° CHURCHILL FALLS NDB
KL NDB RR23 (AWY-LO) 5,200 ft / 1,585 m 54.84944˚ -66.86222˚ 119 nm 124 nm 310° / 308° -
O CYKL APT - 0 ft / 0 m 54.80472˚ -66.80472˚ 3 nm 127 nm 143° / 143° SCHEFFERVILLE

Altitude Profile

Advertisement - Login to hide

CZUM

Details ICAO CZUM (ZUM)
Name CHURCHILL FALLS
Region Canada
Timezone America/Goose_Bay (UTC-4.0)
Stats Elevation 1,442 ft / 440 m (AMSL)
Location 53.562625° -64.105935°
Runways 1
Magnetic Variation 20.788° W

METAR

CZUM 110000Z AUTO 30008KT 7SM -SN OVC041 M18/M21 A2934 RMK SLP981

Decode

TAF

TAF AMD CZUM 102113Z 1021/1108 30008KT 2SM -SN OVC025 TEMPO 1021/1022 6SM -SN FM102200 34008KT 2SM -SN OVC020 TEMPO 1022/1103 P6SM -SN OVC025 BECMG 1100/1102 29012KT FM110300 29012KT 5SM -SN BKN015 OVC040 TEMPO 1103/1108 P6SM NSW SCT015 OVC040 RMK FCST BASED ON AUTO OBS. NXT FCST BY 110200Z

Decode

Departure Runways

ID Width Length Bearing (true) Bearing (mag) Surface Threshold Offset Overrun Length
13 150 ft / 46 m 5,484 ft / 1,671 m 104.57° 125.36° Asphalt 0 ft / 0 m 0 ft / 0 m
31 150 ft / 46 m 5,484 ft / 1,671 m 284.59° 305.38° Asphalt 0 ft / 0 m 0 ft / 0 m

CYKL

Details ICAO CYKL (YKL)
Name SCHEFFERVILLE
Region Canada
Timezone America/Montreal (UTC-5.0)
Stats Elevation 1,709 ft / 521 m (AMSL)
Location 54.804722° -66.804722°
Runways 1
Magnetic Variation 20.964° W

METAR

CYKL 110034Z AUTO 34004KT 2SM BR CLR M25/M27 A2937 RMK VIS VRB 1-3 SLP014

Decode

TAF

TAF AMD CYKL 110032Z 1100/1108 30007KT 6SM -SN BKN030 TEMPO 1103/1108 2SM -SN OVC020 RMK FCST BASED ON AUTO OBS. NXT FCST BY 110200Z

Decode

Destination Runways

ID Width Length Bearing (true) Bearing (mag) Surface Threshold Offset Overrun Length
18 150 ft / 46 m 4,992 ft / 1,522 m 149.05° 170.01° Asphalt 0 ft / 0 m 250 ft / 76 m
36 150 ft / 46 m 4,992 ft / 1,522 m 329.06° 350.02° Asphalt 0 ft / 0 m 250 ft / 76 m